createdAt,value
2024-03-11T00:03:12.955Z,15.90
2024-03-11T00:08:16.549Z,14.10
2024-03-11T00:13:16.465Z,13.70
2024-03-11T00:18:14.075Z,12.50
2024-03-11T00:23:13.239Z,13.40
2024-03-11T00:28:12.494Z,14.60
2024-03-11T00:33:13.473Z,12.40
2024-03-11T00:38:12.895Z,11.70
2024-03-11T00:43:12.458Z,14.70
2024-03-11T00:48:12.500Z,13.10
2024-03-11T00:53:13.016Z,13.10
2024-03-11T00:58:13.523Z,11.50
2024-03-11T01:03:13.582Z,11.00
2024-03-11T01:08:12.669Z,13.20
2024-03-11T01:13:12.891Z,13.10
2024-03-11T01:18:14.228Z,11.90
2024-03-11T01:23:12.782Z,15.00
2024-03-11T01:28:12.709Z,12.50
2024-03-11T01:33:12.476Z,12.50
2024-03-11T01:38:12.624Z,15.90
2024-03-11T01:43:14.965Z,13.50
2024-03-11T01:48:13.577Z,11.60
2024-03-11T01:53:14.498Z,17.10
2024-03-11T01:58:14.016Z,15.50
2024-03-11T02:03:12.401Z,13.70
2024-03-11T02:08:13.227Z,19.60
2024-03-11T02:13:12.943Z,15.70
2024-03-11T02:18:12.562Z,17.30
2024-03-11T02:23:14.114Z,11.70
2024-03-11T02:28:12.622Z,13.40
2024-03-11T02:33:12.518Z,16.40
2024-03-11T02:38:13.659Z,14.20
2024-03-11T02:43:12.315Z,15.40
2024-03-11T02:48:12.592Z,15.00
2024-03-11T02:53:12.730Z,14.30
2024-03-11T02:58:12.739Z,14.40
2024-03-11T03:03:12.388Z,13.20
2024-03-11T03:08:12.373Z,14.40
2024-03-11T03:13:12.388Z,13.30
2024-03-11T03:18:12.413Z,15.40
2024-03-11T03:23:12.541Z,15.50
2024-03-11T03:28:12.390Z,16.50
2024-03-11T03:33:13.095Z,15.00
2024-03-11T03:38:12.448Z,14.10
2024-03-11T03:43:12.544Z,15.70
2024-03-11T03:48:12.338Z,14.60
2024-03-11T03:53:12.594Z,16.50
2024-03-11T03:58:12.374Z,12.70
2024-03-11T04:03:12.331Z,14.80
2024-03-11T04:08:12.321Z,16.70
2024-03-11T04:13:12.953Z,18.20
2024-03-11T04:18:12.363Z,13.20
2024-03-11T04:23:12.541Z,16.70
2024-03-11T04:28:13.284Z,15.70
2024-03-11T04:33:15.868Z,17.10
2024-03-11T04:38:12.461Z,16.20
2024-03-11T04:43:12.581Z,15.00
2024-03-11T04:48:13.753Z,16.50
2024-03-11T04:53:12.862Z,14.90
2024-03-11T04:58:12.413Z,13.00
2024-03-11T05:03:13.178Z,11.30
2024-03-11T05:08:12.422Z,16.60
2024-03-11T05:13:12.372Z,15.50
2024-03-11T05:18:12.328Z,13.80
2024-03-11T05:23:12.507Z,15.60
2024-03-11T05:28:12.181Z,15.30
2024-03-11T05:33:12.736Z,18.00
2024-03-11T05:38:12.999Z,16.90
2024-03-11T05:43:12.444Z,14.30
2024-03-11T05:48:12.407Z,13.60
2024-03-11T05:53:13.120Z,15.00
2024-03-11T05:58:17.113Z,13.70
2024-03-11T06:03:12.325Z,13.00
2024-03-11T06:08:12.689Z,15.50
2024-03-11T06:13:12.343Z,14.90
2024-03-11T06:18:12.374Z,13.70
2024-03-11T06:23:12.468Z,14.50
2024-03-11T06:28:12.157Z,15.10
2024-03-11T06:33:13.773Z,13.60
2024-03-11T06:38:15.001Z,14.00
2024-03-11T06:43:12.497Z,14.00
2024-03-11T06:48:12.489Z,13.80
2024-03-11T06:53:12.475Z,24.80
2024-03-11T06:58:12.105Z,16.60
2024-03-11T07:03:15.121Z,15.40
2024-03-11T07:08:12.155Z,15.80
2024-03-11T07:13:13.552Z,16.60
2024-03-11T07:18:12.355Z,16.30
2024-03-11T07:23:12.404Z,14.30
2024-03-11T07:28:12.941Z,16.60
2024-03-11T07:33:14.809Z,16.80
2024-03-11T07:38:12.212Z,16.90
2024-03-11T07:43:12.507Z,16.00
2024-03-11T07:48:13.175Z,19.90
2024-03-11T07:53:12.330Z,18.10
2024-03-11T07:58:12.192Z,19.00
2024-03-11T08:03:12.108Z,20.80
2024-03-11T08:08:12.823Z,14.80
2024-03-11T08:13:12.018Z,19.60
2024-03-11T08:18:13.685Z,16.30
2024-03-11T08:23:12.591Z,17.90
2024-03-11T08:28:14.989Z,19.80
2024-03-11T08:33:12.367Z,16.40
2024-03-11T08:38:13.488Z,24.10
2024-03-11T08:43:12.802Z,18.50
2024-03-11T08:48:13.910Z,15.20
2024-03-11T08:53:12.236Z,17.90
2024-03-11T08:58:12.408Z,16.70
2024-03-11T09:03:13.075Z,16.60
2024-03-11T09:08:12.276Z,16.10
2024-03-11T09:13:12.302Z,20.00
2024-03-11T09:18:12.211Z,14.10
2024-03-11T09:23:13.882Z,18.30
2024-03-11T09:28:12.451Z,13.80
2024-03-11T09:33:12.172Z,17.20
2024-03-11T09:38:12.859Z,16.90
2024-03-11T09:43:13.331Z,17.90
2024-03-11T09:48:12.197Z,17.90
2024-03-11T09:53:13.519Z,18.00
2024-03-11T09:58:15.751Z,17.20
2024-03-11T10:03:13.679Z,17.90
2024-03-11T10:08:16.083Z,21.20
2024-03-11T10:13:11.911Z,17.60
2024-03-11T10:23:18.288Z,17.20
2024-03-11T10:33:11.997Z,19.00
2024-03-11T10:38:12.790Z,18.40
2024-03-11T10:43:21.183Z,18.60
2024-03-11T10:48:13.701Z,23.40
2024-03-11T10:53:20.801Z,16.80
2024-03-11T10:58:13.135Z,17.50
2024-03-11T11:03:13.126Z,17.50
2024-03-11T11:08:12.860Z,18.90
2024-03-11T11:13:15.949Z,16.50
2024-03-11T11:18:15.995Z,15.70
2024-03-11T11:23:12.428Z,20.70
2024-03-11T11:43:21.124Z,16.80
2024-03-11T11:48:15.109Z,17.10
2024-03-11T11:53:12.266Z,17.80
2024-03-11T11:58:12.142Z,18.70
2024-03-11T12:08:17.624Z,16.90
2024-03-11T12:13:16.399Z,18.40
2024-03-11T12:18:12.869Z,21.10
2024-03-11T12:23:14.034Z,17.50
2024-03-11T12:28:15.520Z,20.10
2024-03-11T12:33:14.783Z,20.00
2024-03-11T12:38:13.248Z,19.80
2024-03-11T12:43:13.077Z,18.30
2024-03-11T12:48:13.324Z,19.80
2024-03-11T12:53:12.726Z,20.10
2024-03-11T12:58:15.160Z,19.80
2024-03-11T13:03:17.364Z,17.70
2024-03-11T13:08:12.522Z,14.20
2024-03-11T13:13:14.399Z,16.30
2024-03-11T13:18:12.322Z,15.00
2024-03-11T13:23:11.945Z,16.90
2024-03-11T13:28:12.273Z,16.10
2024-03-11T13:33:12.331Z,16.90
2024-03-11T13:38:12.370Z,17.80
2024-03-11T13:43:11.858Z,17.90
2024-03-11T13:48:12.066Z,17.20
2024-03-11T13:53:12.860Z,20.10
2024-03-11T13:58:12.257Z,17.70
2024-03-11T14:03:11.734Z,17.70
2024-03-11T14:08:12.784Z,20.50
2024-03-11T14:13:11.820Z,19.10
2024-03-11T14:18:11.920Z,20.90
2024-03-11T14:23:11.907Z,17.70
2024-03-11T14:28:12.352Z,18.70
2024-03-11T14:33:13.206Z,18.20
2024-03-11T14:38:12.042Z,18.90
2024-03-11T14:43:13.313Z,19.90
2024-03-11T14:48:13.209Z,17.40
2024-03-11T14:53:14.027Z,16.00
2024-03-11T14:58:12.848Z,18.40
2024-03-11T15:03:13.267Z,17.30
2024-03-11T15:08:13.055Z,18.10
2024-03-11T15:13:14.773Z,22.00
2024-03-11T15:18:14.805Z,19.80
2024-03-11T15:23:13.948Z,20.70
2024-03-11T15:28:12.584Z,17.10
2024-03-11T15:33:11.750Z,16.20
2024-03-11T15:38:12.028Z,18.20
2024-03-11T15:43:16.408Z,21.20
2024-03-11T15:48:12.800Z,21.90
2024-03-11T15:53:12.775Z,20.20
2024-03-11T15:58:13.793Z,18.20
2024-03-11T16:03:13.659Z,19.90
2024-03-11T16:08:13.486Z,21.20
2024-03-11T16:13:13.311Z,21.60
2024-03-11T16:18:12.672Z,20.50
2024-03-11T16:23:14.120Z,19.50
2024-03-11T16:28:13.016Z,23.10
2024-03-11T16:33:15.485Z,19.80
2024-03-11T16:38:12.260Z,16.90
2024-03-11T16:43:13.827Z,20.70
2024-03-11T16:48:12.662Z,20.90
2024-03-11T16:53:12.119Z,22.20
2024-03-11T16:58:11.654Z,23.40
2024-03-11T17:03:11.766Z,20.50
2024-03-11T17:08:13.812Z,20.20
2024-03-11T17:13:14.106Z,21.70
2024-03-11T17:18:12.008Z,23.20
2024-03-11T17:23:14.545Z,22.00
2024-03-11T17:28:13.177Z,25.50
2024-03-11T17:33:14.082Z,22.20
2024-03-11T17:38:13.205Z,26.10
2024-03-11T17:43:13.575Z,22.50
2024-03-11T17:48:15.730Z,23.10
2024-03-11T17:53:12.520Z,26.30
2024-03-11T17:58:14.175Z,23.90
2024-03-11T18:03:11.759Z,27.00
2024-03-11T18:08:12.712Z,27.80
2024-03-11T18:13:13.713Z,28.10
2024-03-11T18:18:13.190Z,26.70
2024-03-11T18:23:12.845Z,24.00
2024-03-11T18:28:12.878Z,23.70
2024-03-11T18:33:11.804Z,24.10
2024-03-11T18:38:14.910Z,31.90
2024-03-11T18:43:14.764Z,25.70
2024-03-11T18:48:11.669Z,29.70
2024-03-11T18:53:12.076Z,24.20
2024-03-11T18:58:12.155Z,29.10
2024-03-11T19:03:14.197Z,23.30
2024-03-11T19:08:11.844Z,24.80
2024-03-11T19:13:12.175Z,27.40
2024-03-11T19:18:11.575Z,24.10
2024-03-11T19:23:11.694Z,24.40
2024-03-11T19:28:12.558Z,22.50
2024-03-11T19:33:12.129Z,22.00
2024-03-11T19:43:23.236Z,24.80
2024-03-11T20:08:30.592Z,24.90
2024-03-11T20:28:17.795Z,24.40
2024-03-11T20:33:11.857Z,24.70
2024-03-11T20:38:13.467Z,21.70
2024-03-11T20:43:11.707Z,26.30
2024-03-11T20:48:12.109Z,22.00
2024-03-11T20:53:13.578Z,21.30
2024-03-11T20:58:11.499Z,21.70
2024-03-11T21:03:11.744Z,22.00
2024-03-11T21:08:12.436Z,22.40
2024-03-11T21:13:11.446Z,22.60
2024-03-11T21:18:13.229Z,20.20
2024-03-11T21:23:13.169Z,19.60
2024-03-11T21:28:12.582Z,18.00
2024-03-11T21:33:11.930Z,22.40
2024-03-11T21:38:17.955Z,20.30
2024-03-11T21:43:11.498Z,21.10
2024-03-11T21:48:12.980Z,18.30
2024-03-11T21:53:11.829Z,17.20
2024-03-11T21:58:18.004Z,16.20
2024-03-11T22:03:12.406Z,18.50
2024-03-11T22:08:11.577Z,18.20
2024-03-11T22:13:12.860Z,17.70
2024-03-11T22:18:13.567Z,17.40
2024-03-11T22:23:11.332Z,17.20
2024-03-11T22:28:11.736Z,17.00
2024-03-11T22:33:13.000Z,18.10
2024-03-11T22:38:12.089Z,16.40
2024-03-11T22:43:11.815Z,18.70
2024-03-11T22:48:11.604Z,17.30
2024-03-11T22:53:12.365Z,18.10
2024-03-11T22:58:11.479Z,16.20
2024-03-11T23:03:11.638Z,17.20
2024-03-11T23:08:14.591Z,17.80
2024-03-11T23:13:11.412Z,14.40
2024-03-11T23:18:11.827Z,15.60
2024-03-11T23:23:12.561Z,16.00
2024-03-11T23:28:11.398Z,18.40
2024-03-11T23:33:15.847Z,16.00
2024-03-11T23:38:11.314Z,14.00
2024-03-11T23:43:11.479Z,16.00
2024-03-11T23:48:11.468Z,15.00
2024-03-11T23:53:13.030Z,15.00
2024-03-11T23:58:12.214Z,15.70
